sensor_id;sensor_type;location;lat;lon;timestamp;temperature;humidity
42245;DHT22;27912;51.828;5.688;2023-07-28T00:01:56;18.00;99.90
42245;DHT22;27912;51.828;5.688;2023-07-28T00:04:21;18.00;99.90
42245;DHT22;27912;51.828;5.688;2023-07-28T00:06:47;17.90;99.90
42245;DHT22;27912;51.828;5.688;2023-07-28T00:09:12;17.90;99.90
42245;DHT22;27912;51.828;5.688;2023-07-28T00:11:38;18.00;99.90
42245;DHT22;27912;51.828;5.688;2023-07-28T00:14:03;18.00;99.90
42245;DHT22;27912;51.828;5.688;2023-07-28T00:16:29;18.00;99.90
42245;DHT22;27912;51.828;5.688;2023-07-28T00:18:55;18.00;99.90
42245;DHT22;27912;51.828;5.688;2023-07-28T00:21:20;17.90;99.90
42245;DHT22;27912;51.828;5.688;2023-07-28T00:23:45;17.90;99.90
42245;DHT22;27912;51.828;5.688;2023-07-28T00:26:11;18.00;99.90
42245;DHT22;27912;51.828;5.688;2023-07-28T00:28:37;17.90;99.90
42245;DHT22;27912;51.828;5.688;2023-07-28T00:31:03;18.00;99.90
42245;DHT22;27912;51.828;5.688;2023-07-28T00:33:29;17.90;99.90
42245;DHT22;27912;51.828;5.688;2023-07-28T00:35:54;17.90;99.90
42245;DHT22;27912;51.828;5.688;2023-07-28T00:38:20;18.00;99.90
42245;DHT22;27912;51.828;5.688;2023-07-28T00:40:45;18.00;99.90
42245;DHT22;27912;51.828;5.688;2023-07-28T00:43:11;18.00;99.90
42245;DHT22;27912;51.828;5.688;2023-07-28T00:45:37;18.00;99.90
42245;DHT22;27912;51.828;5.688;2023-07-28T00:48:02;18.00;99.90
42245;DHT22;27912;51.828;5.688;2023-07-28T00:50:29;18.00;99.90
42245;DHT22;27912;51.828;5.688;2023-07-28T00:52:55;18.00;99.90
42245;DHT22;27912;51.828;5.688;2023-07-28T00:55:21;18.00;99.90
42245;DHT22;27912;51.828;5.688;2023-07-28T00:57:47;18.00;99.90
42245;DHT22;27912;51.828;5.688;2023-07-28T01:00:13;17.90;99.90
42245;DHT22;27912;51.828;5.688;2023-07-28T01:02:38;17.90;99.90
42245;DHT22;27912;51.828;5.688;2023-07-28T01:05:05;18.00;99.90
42245;DHT22;27912;51.828;5.688;2023-07-28T01:07:52;18.00;99.90
42245;DHT22;27912;51.828;5.688;2023-07-28T01:10:26;17.90;99.90
42245;DHT22;27912;51.828;5.688;2023-07-28T01:12:53;18.00;99.90
42245;DHT22;27912;51.828;5.688;2023-07-28T01:15:19;17.90;99.90
42245;DHT22;27912;51.828;5.688;2023-07-28T01:17:44;17.90;99.90
42245;DHT22;27912;51.828;5.688;2023-07-28T01:20:10;17.90;99.90
42245;DHT22;27912;51.828;5.688;2023-07-28T01:23:13;17.90;99.90
42245;DHT22;27912;51.828;5.688;2023-07-28T01:28:17;17.90;99.90
42245;DHT22;27912;51.828;5.688;2023-07-28T01:30:42;18.00;99.90
42245;DHT22;27912;51.828;5.688;2023-07-28T01:33:08;17.90;99.90
42245;DHT22;27912;51.828;5.688;2023-07-28T01:35:36;17.90;99.90
42245;DHT22;27912;51.828;5.688;2023-07-28T01:38:02;17.90;99.90
42245;DHT22;27912;51.828;5.688;2023-07-28T01:40:28;17.90;99.90
42245;DHT22;27912;51.828;5.688;2023-07-28T01:42:53;18.00;99.90
42245;DHT22;27912;51.828;5.688;2023-07-28T01:45:19;18.00;99.90
42245;DHT22;27912;51.828;5.688;2023-07-28T01:47:44;18.00;99.90
42245;DHT22;27912;51.828;5.688;2023-07-28T01:50:10;18.00;99.90
42245;DHT22;27912;51.828;5.688;2023-07-28T01:52:35;18.00;99.90
42245;DHT22;27912;51.828;5.688;2023-07-28T01:55:01;18.00;99.90
42245;DHT22;27912;51.828;5.688;2023-07-28T01:57:27;18.00;99.90
42245;DHT22;27912;51.828;5.688;2023-07-28T01:59:54;18.00;99.90
42245;DHT22;27912;51.828;5.688;2023-07-28T02:02:19;17.90;99.90
42245;DHT22;27912;51.828;5.688;2023-07-28T02:04:45;18.00;99.90
42245;DHT22;27912;51.828;5.688;2023-07-28T02:07:11;17.90;99.90
42245;DHT22;27912;51.828;5.688;2023-07-28T02:09:37;18.00;99.90
42245;DHT22;27912;51.828;5.688;2023-07-28T02:12:02;17.90;99.90
42245;DHT22;27912;51.828;5.688;2023-07-28T02:14:28;17.90;99.90
42245;DHT22;27912;51.828;5.688;2023-07-28T02:16:53;18.00;99.90
42245;DHT22;27912;51.828;5.688;2023-07-28T02:19:19;18.00;99.90
42245;DHT22;27912;51.828;5.688;2023-07-28T02:21:44;17.90;99.90
42245;DHT22;27912;51.828;5.688;2023-07-28T02:24:10;18.00;99.90
42245;DHT22;27912;51.828;5.688;2023-07-28T02:26:35;18.00;99.90
42245;DHT22;27912;51.828;5.688;2023-07-28T02:29:01;18.00;99.90
42245;DHT22;27912;51.828;5.688;2023-07-28T02:31:26;18.00;99.90
42245;DHT22;27912;51.828;5.688;2023-07-28T02:33:52;18.00;99.90
42245;DHT22;27912;51.828;5.688;2023-07-28T02:36:17;18.00;99.90
42245;DHT22;27912;51.828;5.688;2023-07-28T02:38:43;18.00;99.90
42245;DHT22;27912;51.828;5.688;2023-07-28T02:41:08;18.00;99.90
42245;DHT22;27912;51.828;5.688;2023-07-28T02:43:34;18.00;99.90
42245;DHT22;27912;51.828;5.688;2023-07-28T02:46:00;18.00;99.90
42245;DHT22;27912;51.828;5.688;2023-07-28T02:48:26;18.00;99.90
42245;DHT22;27912;51.828;5.688;2023-07-28T02:50:52;18.10;99.90
42245;DHT22;27912;51.828;5.688;2023-07-28T02:53:17;18.00;99.90
42245;DHT22;27912;51.828;5.688;2023-07-28T02:55:44;18.10;99.90
42245;DHT22;27912;51.828;5.688;2023-07-28T02:58:10;18.00;99.90
42245;DHT22;27912;51.828;5.688;2023-07-28T03:00:39;18.10;99.90
42245;DHT22;27912;51.828;5.688;2023-07-28T03:03:06;18.10;99.90
42245;DHT22;27912;51.828;5.688;2023-07-28T03:05:32;18.00;99.90
42245;DHT22;27912;51.828;5.688;2023-07-28T03:07:58;18.10;99.90
42245;DHT22;27912;51.828;5.688;2023-07-28T03:10:24;18.10;99.90
42245;DHT22;27912;51.828;5.688;2023-07-28T03:12:49;18.10;99.90
42245;DHT22;27912;51.828;5.688;2023-07-28T03:15:15;18.10;99.90
42245;DHT22;27912;51.828;5.688;2023-07-28T03:17:40;18.10;99.90
42245;DHT22;27912;51.828;5.688;2023-07-28T03:20:06;18.10;99.90
42245;DHT22;27912;51.828;5.688;2023-07-28T03:22:32;18.10;99.90
42245;DHT22;27912;51.828;5.688;2023-07-28T03:24:57;18.10;99.90
42245;DHT22;27912;51.828;5.688;2023-07-28T03:27:23;18.10;99.90
42245;DHT22;27912;51.828;5.688;2023-07-28T03:29:50;18.10;99.90
42245;DHT22;27912;51.828;5.688;2023-07-28T03:32:15;18.10;99.90
42245;DHT22;27912;51.828;5.688;2023-07-28T03:34:41;18.00;99.90
42245;DHT22;27912;51.828;5.688;2023-07-28T03:37:07;18.10;99.90
42245;DHT22;27912;51.828;5.688;2023-07-28T03:39:32;18.10;99.90
42245;DHT22;27912;51.828;5.688;2023-07-28T03:41:58;18.10;99.90
42245;DHT22;27912;51.828;5.688;2023-07-28T03:44:23;18.10;99.90
42245;DHT22;27912;51.828;5.688;2023-07-28T03:46:49;18.10;99.90
42245;DHT22;27912;51.828;5.688;2023-07-28T03:49:15;18.10;99.90
42245;DHT22;27912;51.828;5.688;2023-07-28T03:51:40;18.10;99.90
42245;DHT22;27912;51.828;5.688;2023-07-28T03:54:06;18.10;99.90
42245;DHT22;27912;51.828;5.688;2023-07-28T03:56:31;18.10;99.90
42245;DHT22;27912;51.828;5.688;2023-07-28T03:58:57;18.10;99.90
42245;DHT22;27912;51.828;5.688;2023-07-28T04:01:22;18.10;99.90
42245;DHT22;27912;51.828;5.688;2023-07-28T04:03:49;18.10;99.90
42245;DHT22;27912;51.828;5.688;2023-07-28T04:06:15;18.10;99.90
42245;DHT22;27912;51.828;5.688;2023-07-28T04:08:41;18.10;99.90
42245;DHT22;27912;51.828;5.688;2023-07-28T04:11:06;18.10;99.90
42245;DHT22;27912;51.828;5.688;2023-07-28T04:13:33;18.10;99.90
42245;DHT22;27912;51.828;5.688;2023-07-28T04:15:59;18.10;99.90
42245;DHT22;27912;51.828;5.688;2023-07-28T04:18:25;18.10;99.90
42245;DHT22;27912;51.828;5.688;2023-07-28T04:20:50;18.10;99.90
42245;DHT22;27912;51.828;5.688;2023-07-28T04:23:16;18.10;99.90
42245;DHT22;27912;51.828;5.688;2023-07-28T04:25:42;18.10;99.90
42245;DHT22;27912;51.828;5.688;2023-07-28T04:28:07;18.10;99.90
42245;DHT22;27912;51.828;5.688;2023-07-28T04:30:33;18.10;99.90
42245;DHT22;27912;51.828;5.688;2023-07-28T04:32:58;18.10;99.90
42245;DHT22;27912;51.828;5.688;2023-07-28T04:35:24;18.10;99.90
42245;DHT22;27912;51.828;5.688;2023-07-28T04:37:49;18.10;99.90
42245;DHT22;27912;51.828;5.688;2023-07-28T04:40:15;18.10;99.90
42245;DHT22;27912;51.828;5.688;2023-07-28T04:42:40;18.10;99.90
42245;DHT22;27912;51.828;5.688;2023-07-28T04:45:06;18.20;99.90
42245;DHT22;27912;51.828;5.688;2023-07-28T04:47:32;18.20;99.90
42245;DHT22;27912;51.828;5.688;2023-07-28T04:49:58;18.10;99.90
42245;DHT22;27912;51.828;5.688;2023-07-28T04:52:23;18.20;99.90
42245;DHT22;27912;51.828;5.688;2023-07-28T04:54:49;18.20;99.90
42245;DHT22;27912;51.828;5.688;2023-07-28T04:57:14;18.20;99.90
42245;DHT22;27912;51.828;5.688;2023-07-28T04:59:40;18.20;99.90
42245;DHT22;27912;51.828;5.688;2023-07-28T05:02:06;18.20;99.90
42245;DHT22;27912;51.828;5.688;2023-07-28T05:04:31;18.20;99.90
42245;DHT22;27912;51.828;5.688;2023-07-28T05:06:57;18.20;99.90
42245;DHT22;27912;51.828;5.688;2023-07-28T05:09:23;18.20;99.90
42245;DHT22;27912;51.828;5.688;2023-07-28T05:11:48;18.20;99.90
42245;DHT22;27912;51.828;5.688;2023-07-28T05:14:13;18.20;99.90
42245;DHT22;27912;51.828;5.688;2023-07-28T05:16:39;18.20;99.90
42245;DHT22;27912;51.828;5.688;2023-07-28T05:19:08;18.20;99.90
42245;DHT22;27912;51.828;5.688;2023-07-28T05:21:33;18.20;99.90
42245;DHT22;27912;51.828;5.688;2023-07-28T05:23:59;18.20;99.90
42245;DHT22;27912;51.828;5.688;2023-07-28T05:26:24;18.20;99.90
42245;DHT22;27912;51.828;5.688;2023-07-28T05:28:50;18.30;99.90
42245;DHT22;27912;51.828;5.688;2023-07-28T05:31:16;18.30;99.90
42245;DHT22;27912;51.828;5.688;2023-07-28T05:33:42;18.30;99.90
42245;DHT22;27912;51.828;5.688;2023-07-28T05:36:07;18.30;99.90
42245;DHT22;27912;51.828;5.688;2023-07-28T05:38:33;18.30;99.90
42245;DHT22;27912;51.828;5.688;2023-07-28T05:41:00;18.30;99.90
42245;DHT22;27912;51.828;5.688;2023-07-28T05:43:27;18.30;99.90
42245;DHT22;27912;51.828;5.688;2023-07-28T05:45:52;18.30;99.90
42245;DHT22;27912;51.828;5.688;2023-07-28T05:48:18;18.30;99.90
42245;DHT22;27912;51.828;5.688;2023-07-28T05:50:44;18.30;99.90
42245;DHT22;27912;51.828;5.688;2023-07-28T05:53:09;18.30;99.90
42245;DHT22;27912;51.828;5.688;2023-07-28T05:55:35;18.40;99.90
42245;DHT22;27912;51.828;5.688;2023-07-28T05:58:00;18.40;99.90
42245;DHT22;27912;51.828;5.688;2023-07-28T06:00:26;18.40;99.90
42245;DHT22;27912;51.828;5.688;2023-07-28T06:02:52;18.40;99.90
42245;DHT22;27912;51.828;5.688;2023-07-28T06:05:17;18.40;99.90
42245;DHT22;27912;51.828;5.688;2023-07-28T06:07:43;18.40;99.90
42245;DHT22;27912;51.828;5.688;2023-07-28T06:10:09;18.50;99.90
42245;DHT22;27912;51.828;5.688;2023-07-28T06:12:34;18.50;99.90
42245;DHT22;27912;51.828;5.688;2023-07-28T06:15:02;18.50;99.90
42245;DHT22;27912;51.828;5.688;2023-07-28T06:17:28;18.60;99.90
42245;DHT22;27912;51.828;5.688;2023-07-28T06:19:54;18.60;99.90
42245;DHT22;27912;51.828;5.688;2023-07-28T06:22:20;18.60;99.90
42245;DHT22;27912;51.828;5.688;2023-07-28T06:24:45;18.60;99.90
42245;DHT22;27912;51.828;5.688;2023-07-28T06:27:11;18.70;99.90
42245;DHT22;27912;51.828;5.688;2023-07-28T06:29:36;18.70;99.90
42245;DHT22;27912;51.828;5.688;2023-07-28T06:32:02;18.70;99.90
42245;DHT22;27912;51.828;5.688;2023-07-28T06:34:28;18.70;99.90
42245;DHT22;27912;51.828;5.688;2023-07-28T06:36:53;18.70;99.90
42245;DHT22;27912;51.828;5.688;2023-07-28T06:39:19;18.70;99.90
42245;DHT22;27912;51.828;5.688;2023-07-28T06:41:45;18.70;99.90
42245;DHT22;27912;51.828;5.688;2023-07-28T06:44:10;18.70;99.90
42245;DHT22;27912;51.828;5.688;2023-07-28T06:46:36;18.80;99.90
42245;DHT22;27912;51.828;5.688;2023-07-28T06:49:01;18.80;99.90
42245;DHT22;27912;51.828;5.688;2023-07-28T06:51:27;18.80;99.90
42245;DHT22;27912;51.828;5.688;2023-07-28T06:53:52;18.80;99.90
42245;DHT22;27912;51.828;5.688;2023-07-28T06:56:18;18.90;99.90
42245;DHT22;27912;51.828;5.688;2023-07-28T06:58:44;18.80;99.90
42245;DHT22;27912;51.828;5.688;2023-07-28T07:01:09;18.80;99.90
42245;DHT22;27912;51.828;5.688;2023-07-28T07:03:36;18.80;99.90
42245;DHT22;27912;51.828;5.688;2023-07-28T07:06:02;18.80;99.90
42245;DHT22;27912;51.828;5.688;2023-07-28T07:08:27;18.80;99.90
42245;DHT22;27912;51.828;5.688;2023-07-28T07:10:53;18.80;99.90
42245;DHT22;27912;51.828;5.688;2023-07-28T07:13:19;18.90;99.90
42245;DHT22;27912;51.828;5.688;2023-07-28T07:15:45;18.90;99.90
42245;DHT22;27912;51.828;5.688;2023-07-28T07:18:11;18.90;99.90
42245;DHT22;27912;51.828;5.688;2023-07-28T07:20:37;19.00;99.90
42245;DHT22;27912;51.828;5.688;2023-07-28T07:23:04;18.90;99.90
42245;DHT22;27912;51.828;5.688;2023-07-28T07:25:30;19.00;99.90
42245;DHT22;27912;51.828;5.688;2023-07-28T07:27:56;19.00;99.90
42245;DHT22;27912;51.828;5.688;2023-07-28T07:30:22;19.00;99.90
42245;DHT22;27912;51.828;5.688;2023-07-28T07:32:47;19.00;99.90
42245;DHT22;27912;51.828;5.688;2023-07-28T07:35:13;19.00;99.90
42245;DHT22;27912;51.828;5.688;2023-07-28T07:37:39;19.10;99.90
42245;DHT22;27912;51.828;5.688;2023-07-28T07:40:06;19.10;99.90
42245;DHT22;27912;51.828;5.688;2023-07-28T07:43:02;19.20;99.90
42245;DHT22;27912;51.828;5.688;2023-07-28T07:45:29;19.30;99.90
42245;DHT22;27912;51.828;5.688;2023-07-28T07:47:55;19.30;99.90
42245;DHT22;27912;51.828;5.688;2023-07-28T07:50:21;19.40;99.90
42245;DHT22;27912;51.828;5.688;2023-07-28T07:52:47;19.50;99.90
42245;DHT22;27912;51.828;5.688;2023-07-28T07:55:13;19.60;99.90
42245;DHT22;27912;51.828;5.688;2023-07-28T07:57:42;19.60;99.90
42245;DHT22;27912;51.828;5.688;2023-07-28T08:00:08;19.70;99.90
42245;DHT22;27912;51.828;5.688;2023-07-28T08:02:34;19.80;99.90
42245;DHT22;27912;51.828;5.688;2023-07-28T08:05:00;19.80;99.90
42245;DHT22;27912;51.828;5.688;2023-07-28T08:07:26;19.80;99.90
42245;DHT22;27912;51.828;5.688;2023-07-28T08:09:51;19.90;99.90
42245;DHT22;27912;51.828;5.688;2023-07-28T08:12:17;19.90;99.90
42245;DHT22;27912;51.828;5.688;2023-07-28T08:14:43;20.00;99.90
42245;DHT22;27912;51.828;5.688;2023-07-28T08:17:10;20.10;99.90
42245;DHT22;27912;51.828;5.688;2023-07-28T08:19:35;20.00;99.90
42245;DHT22;27912;51.828;5.688;2023-07-28T08:22:02;20.00;99.90
42245;DHT22;27912;51.828;5.688;2023-07-28T08:24:31;20.00;99.90
42245;DHT22;27912;51.828;5.688;2023-07-28T08:26:57;19.90;99.90
42245;DHT22;27912;51.828;5.688;2023-07-28T08:29:22;19.80;99.90
42245;DHT22;27912;51.828;5.688;2023-07-28T08:31:48;19.80;99.90
42245;DHT22;27912;51.828;5.688;2023-07-28T08:34:19;19.90;99.90
42245;DHT22;27912;51.828;5.688;2023-07-28T08:36:44;19.90;99.90
42245;DHT22;27912;51.828;5.688;2023-07-28T08:39:10;20.00;99.90
42245;DHT22;27912;51.828;5.688;2023-07-28T08:41:35;20.10;99.90
42245;DHT22;27912;51.828;5.688;2023-07-28T08:44:02;20.10;99.90
42245;DHT22;27912;51.828;5.688;2023-07-28T08:46:28;20.10;99.90
42245;DHT22;27912;51.828;5.688;2023-07-28T08:48:54;20.10;99.90
42245;DHT22;27912;51.828;5.688;2023-07-28T08:51:22;20.20;99.90
42245;DHT22;27912;51.828;5.688;2023-07-28T08:53:49;20.20;99.90
42245;DHT22;27912;51.828;5.688;2023-07-28T08:56:14;20.20;99.90
42245;DHT22;27912;51.828;5.688;2023-07-28T08:58:40;20.30;99.90
42245;DHT22;27912;51.828;5.688;2023-07-28T09:01:06;20.30;99.90
42245;DHT22;27912;51.828;5.688;2023-07-28T09:03:31;20.30;99.90
42245;DHT22;27912;51.828;5.688;2023-07-28T09:06:02;20.40;99.90
42245;DHT22;27912;51.828;5.688;2023-07-28T09:08:30;20.40;99.90
42245;DHT22;27912;51.828;5.688;2023-07-28T09:10:56;20.40;99.90
42245;DHT22;27912;51.828;5.688;2023-07-28T09:13:22;20.50;99.90
42245;DHT22;27912;51.828;5.688;2023-07-28T09:15:47;20.50;99.90
42245;DHT22;27912;51.828;5.688;2023-07-28T09:18:15;20.60;99.90
42245;DHT22;27912;51.828;5.688;2023-07-28T09:20:41;20.70;99.90
42245;DHT22;27912;51.828;5.688;2023-07-28T09:23:08;20.70;99.90
42245;DHT22;27912;51.828;5.688;2023-07-28T09:25:36;20.80;99.90
42245;DHT22;27912;51.828;5.688;2023-07-28T09:28:02;20.90;99.90
42245;DHT22;27912;51.828;5.688;2023-07-28T09:30:46;20.90;99.90
42245;DHT22;27912;51.828;5.688;2023-07-28T09:33:12;20.90;99.90
42245;DHT22;27912;51.828;5.688;2023-07-28T09:35:49;20.80;99.90
42245;DHT22;27912;51.828;5.688;2023-07-28T09:38:15;20.80;99.90
42245;DHT22;27912;51.828;5.688;2023-07-28T09:40:45;20.80;99.90
42245;DHT22;27912;51.828;5.688;2023-07-28T09:43:12;20.80;99.90
42245;DHT22;27912;51.828;5.688;2023-07-28T09:45:39;20.90;99.90
42245;DHT22;27912;51.828;5.688;2023-07-28T09:48:14;21.10;99.90
42245;DHT22;27912;51.828;5.688;2023-07-28T09:50:42;21.30;99.90
42245;DHT22;27912;51.828;5.688;2023-07-28T09:53:09;21.50;99.90
42245;DHT22;27912;51.828;5.688;2023-07-28T09:55:39;21.50;99.90
42245;DHT22;27912;51.828;5.688;2023-07-28T09:58:10;21.60;99.90
42245;DHT22;27912;51.828;5.688;2023-07-28T10:00:37;21.70;99.90
42245;DHT22;27912;51.828;5.688;2023-07-28T10:03:04;21.90;99.90
42245;DHT22;27912;51.828;5.688;2023-07-28T10:05:30;22.10;99.90
42245;DHT22;27912;51.828;5.688;2023-07-28T10:07:56;22.30;99.90
42245;DHT22;27912;51.828;5.688;2023-07-28T10:10:22;22.40;99.90
42245;DHT22;27912;51.828;5.688;2023-07-28T10:12:52;22.50;99.90
42245;DHT22;27912;51.828;5.688;2023-07-28T10:15:19;22.70;99.90
42245;DHT22;27912;51.828;5.688;2023-07-28T10:17:50;22.90;99.90
42245;DHT22;27912;51.828;5.688;2023-07-28T10:20:39;23.00;99.90
42245;DHT22;27912;51.828;5.688;2023-07-28T10:25:35;23.10;99.90
42245;DHT22;27912;51.828;5.688;2023-07-28T10:28:01;23.10;99.90
42245;DHT22;27912;51.828;5.688;2023-07-28T10:30:28;23.20;99.90
42245;DHT22;27912;51.828;5.688;2023-07-28T10:32:55;23.20;99.90
42245;DHT22;27912;51.828;5.688;2023-07-28T10:35:25;23.20;99.90
42245;DHT22;27912;51.828;5.688;2023-07-28T10:37:51;23.20;99.90
42245;DHT22;27912;51.828;5.688;2023-07-28T10:42:55;23.10;99.90
42245;DHT22;27912;51.828;5.688;2023-07-28T10:45:25;23.10;99.90
42245;DHT22;27912;51.828;5.688;2023-07-28T10:47:53;23.20;99.90
42245;DHT22;27912;51.828;5.688;2023-07-28T10:50:23;23.20;99.90
42245;DHT22;27912;51.828;5.688;2023-07-28T10:52:50;23.30;99.90
42245;DHT22;27912;51.828;5.688;2023-07-28T10:55:16;23.50;99.90
42245;DHT22;27912;51.828;5.688;2023-07-28T10:57:44;23.60;99.90
42245;DHT22;27912;51.828;5.688;2023-07-28T11:00:17;23.80;99.90
42245;DHT22;27912;51.828;5.688;2023-07-28T11:05:19;24.10;99.90
42245;DHT22;27912;51.828;5.688;2023-07-28T11:07:45;24.30;99.90
42245;DHT22;27912;51.828;5.688;2023-07-28T11:10:14;24.50;99.90
42245;DHT22;27912;51.828;5.688;2023-07-28T11:12:45;24.70;99.90
42245;DHT22;27912;51.828;5.688;2023-07-28T11:15:13;24.90;99.90
42245;DHT22;27912;51.828;5.688;2023-07-28T11:17:40;24.90;99.90
42245;DHT22;27912;51.828;5.688;2023-07-28T11:20:27;25.00;99.90
42245;DHT22;27912;51.828;5.688;2023-07-28T11:23:00;25.00;99.90
42245;DHT22;27912;51.828;5.688;2023-07-28T11:25:28;25.10;99.90
42245;DHT22;27912;51.828;5.688;2023-07-28T11:27:55;25.10;99.90
42245;DHT22;27912;51.828;5.688;2023-07-28T11:30:22;25.30;99.90
42245;DHT22;27912;51.828;5.688;2023-07-28T11:32:49;25.40;99.90
42245;DHT22;27912;51.828;5.688;2023-07-28T11:35:18;25.50;99.90
42245;DHT22;27912;51.828;5.688;2023-07-28T11:37:46;25.60;99.90
42245;DHT22;27912;51.828;5.688;2023-07-28T11:40:15;25.60;99.90
42245;DHT22;27912;51.828;5.688;2023-07-28T11:42:45;25.60;99.90
42245;DHT22;27912;51.828;5.688;2023-07-28T11:45:13;25.60;99.90
42245;DHT22;27912;51.828;5.688;2023-07-28T11:47:39;25.70;99.90
42245;DHT22;27912;51.828;5.688;2023-07-28T11:50:06;25.80;99.90
42245;DHT22;27912;51.828;5.688;2023-07-28T11:52:34;25.90;99.90
42245;DHT22;27912;51.828;5.688;2023-07-28T11:55:04;26.00;99.90
42245;DHT22;27912;51.828;5.688;2023-07-28T11:57:30;25.90;99.90
42245;DHT22;27912;51.828;5.688;2023-07-28T11:59:56;25.90;99.90
42245;DHT22;27912;51.828;5.688;2023-07-28T12:02:31;25.70;99.90
42245;DHT22;27912;51.828;5.688;2023-07-28T12:04:56;25.70;99.90
42245;DHT22;27912;51.828;5.688;2023-07-28T12:07:33;25.70;99.90
42245;DHT22;27912;51.828;5.688;2023-07-28T12:10:08;25.70;99.90
42245;DHT22;27912;51.828;5.688;2023-07-28T12:12:47;25.70;99.90
42245;DHT22;27912;51.828;5.688;2023-07-28T12:15:29;25.60;99.90
42245;DHT22;27912;51.828;5.688;2023-07-28T12:18:15;25.60;99.90
42245;DHT22;27912;51.828;5.688;2023-07-28T12:20:49;25.70;99.90
42245;DHT22;27912;51.828;5.688;2023-07-28T12:23:17;25.70;99.90
42245;DHT22;27912;51.828;5.688;2023-07-28T12:25:43;25.60;99.90
42245;DHT22;27912;51.828;5.688;2023-07-28T12:28:09;25.60;99.90
42245;DHT22;27912;51.828;5.688;2023-07-28T12:30:36;25.60;99.90
42245;DHT22;27912;51.828;5.688;2023-07-28T12:33:03;25.70;99.90
42245;DHT22;27912;51.828;5.688;2023-07-28T12:35:30;25.70;99.90
42245;DHT22;27912;51.828;5.688;2023-07-28T12:38:00;25.60;99.90
42245;DHT22;27912;51.828;5.688;2023-07-28T12:40:29;25.40;99.90
42245;DHT22;27912;51.828;5.688;2023-07-28T12:42:56;25.30;99.90
42245;DHT22;27912;51.828;5.688;2023-07-28T12:45:22;25.20;99.90
42245;DHT22;27912;51.828;5.688;2023-07-28T12:47:48;25.20;99.90
42245;DHT22;27912;51.828;5.688;2023-07-28T12:50:16;25.20;99.90
42245;DHT22;27912;51.828;5.688;2023-07-28T12:52:44;25.20;99.90
42245;DHT22;27912;51.828;5.688;2023-07-28T12:55:10;25.30;99.90
42245;DHT22;27912;51.828;5.688;2023-07-28T12:57:35;25.30;99.90
42245;DHT22;27912;51.828;5.688;2023-07-28T13:00:01;25.50;99.90
42245;DHT22;27912;51.828;5.688;2023-07-28T13:02:35;25.50;99.90
42245;DHT22;27912;51.828;5.688;2023-07-28T13:05:01;25.50;99.90
42245;DHT22;27912;51.828;5.688;2023-07-28T13:07:31;25.50;99.90
42245;DHT22;27912;51.828;5.688;2023-07-28T13:09:57;25.60;99.90
42245;DHT22;27912;51.828;5.688;2023-07-28T13:12:26;25.70;99.90
42245;DHT22;27912;51.828;5.688;2023-07-28T13:14:51;25.60;99.90
42245;DHT22;27912;51.828;5.688;2023-07-28T13:17:17;25.60;99.90
42245;DHT22;27912;51.828;5.688;2023-07-28T13:19:43;25.60;99.90
42245;DHT22;27912;51.828;5.688;2023-07-28T13:22:09;25.70;99.90
42245;DHT22;27912;51.828;5.688;2023-07-28T13:24:37;25.70;99.90
42245;DHT22;27912;51.828;5.688;2023-07-28T13:27:04;25.90;99.90
42245;DHT22;27912;51.828;5.688;2023-07-28T13:29:29;26.10;99.90
42245;DHT22;27912;51.828;5.688;2023-07-28T13:31:58;26.30;99.90
42245;DHT22;27912;51.828;5.688;2023-07-28T13:34:25;26.50;99.90
42245;DHT22;27912;51.828;5.688;2023-07-28T13:36:52;26.80;99.90
42245;DHT22;27912;51.828;5.688;2023-07-28T13:39:17;26.90;99.90
42245;DHT22;27912;51.828;5.688;2023-07-28T13:41:49;26.90;99.90
42245;DHT22;27912;51.828;5.688;2023-07-28T13:44:15;26.90;99.90
42245;DHT22;27912;51.828;5.688;2023-07-28T13:46:41;26.80;99.90
42245;DHT22;27912;51.828;5.688;2023-07-28T13:49:12;26.60;99.90
42245;DHT22;27912;51.828;5.688;2023-07-28T13:51:37;26.50;99.90
42245;DHT22;27912;51.828;5.688;2023-07-28T13:54:03;26.20;99.90
42245;DHT22;27912;51.828;5.688;2023-07-28T13:56:29;26.00;99.90
42245;DHT22;27912;51.828;5.688;2023-07-28T13:58:54;25.90;99.90
42245;DHT22;27912;51.828;5.688;2023-07-28T14:01:20;26.00;99.90
42245;DHT22;27912;51.828;5.688;2023-07-28T14:03:47;26.20;99.90
42245;DHT22;27912;51.828;5.688;2023-07-28T14:06:13;26.30;99.90
42245;DHT22;27912;51.828;5.688;2023-07-28T14:08:38;26.30;99.90
42245;DHT22;27912;51.828;5.688;2023-07-28T14:11:04;26.30;99.90
42245;DHT22;27912;51.828;5.688;2023-07-28T14:13:30;26.20;99.90
42245;DHT22;27912;51.828;5.688;2023-07-28T14:15:57;26.10;99.90
42245;DHT22;27912;51.828;5.688;2023-07-28T14:18:23;26.00;99.90
42245;DHT22;27912;51.828;5.688;2023-07-28T14:20:48;25.80;99.90
42245;DHT22;27912;51.828;5.688;2023-07-28T14:23:24;25.60;99.90
42245;DHT22;27912;51.828;5.688;2023-07-28T14:25:51;25.50;99.90
42245;DHT22;27912;51.828;5.688;2023-07-28T14:28:17;25.30;99.90
42245;DHT22;27912;51.828;5.688;2023-07-28T14:30:43;25.10;99.90
42245;DHT22;27912;51.828;5.688;2023-07-28T14:33:14;25.00;99.90
42245;DHT22;27912;51.828;5.688;2023-07-28T14:35:41;24.80;99.90
42245;DHT22;27912;51.828;5.688;2023-07-28T14:38:07;24.80;99.90
42245;DHT22;27912;51.828;5.688;2023-07-28T14:40:33;24.70;99.90
42245;DHT22;27912;51.828;5.688;2023-07-28T14:42:59;24.60;99.90
42245;DHT22;27912;51.828;5.688;2023-07-28T14:45:24;24.60;99.90
42245;DHT22;27912;51.828;5.688;2023-07-28T14:47:50;24.60;99.90
42245;DHT22;27912;51.828;5.688;2023-07-28T14:50:16;24.70;99.90
42245;DHT22;27912;51.828;5.688;2023-07-28T14:52:42;24.90;99.90
42245;DHT22;27912;51.828;5.688;2023-07-28T14:55:11;25.10;99.90
42245;DHT22;27912;51.828;5.688;2023-07-28T14:57:37;25.20;99.90
42245;DHT22;27912;51.828;5.688;2023-07-28T15:00:03;25.40;99.90
42245;DHT22;27912;51.828;5.688;2023-07-28T15:02:29;25.60;99.90
42245;DHT22;27912;51.828;5.688;2023-07-28T15:04:55;25.70;99.90
42245;DHT22;27912;51.828;5.688;2023-07-28T15:07:20;25.80;99.90
42245;DHT22;27912;51.828;5.688;2023-07-28T15:09:48;25.80;99.90
42245;DHT22;27912;51.828;5.688;2023-07-28T15:12:16;25.80;99.90
42245;DHT22;27912;51.828;5.688;2023-07-28T15:14:42;25.70;99.90
42245;DHT22;27912;51.828;5.688;2023-07-28T15:17:07;25.70;99.90
42245;DHT22;27912;51.828;5.688;2023-07-28T15:19:33;25.80;99.90
42245;DHT22;27912;51.828;5.688;2023-07-28T15:21:59;25.80;99.90
42245;DHT22;27912;51.828;5.688;2023-07-28T15:24:24;25.90;99.90
42245;DHT22;27912;51.828;5.688;2023-07-28T15:26:50;25.80;99.90
42245;DHT22;27912;51.828;5.688;2023-07-28T15:29:17;25.60;99.90
42245;DHT22;27912;51.828;5.688;2023-07-28T15:31:43;25.70;99.90
42245;DHT22;27912;51.828;5.688;2023-07-28T15:34:08;25.90;99.90
42245;DHT22;27912;51.828;5.688;2023-07-28T15:36:34;25.90;99.90
42245;DHT22;27912;51.828;5.688;2023-07-28T15:39:00;25.80;99.90